sensor_id;sensor_type;location;lat;lon;timestamp;temperature;humidity
12761;DHT22;6444;49.742;6.114;2023-10-09T00:00:06;15.40;99.90
12761;DHT22;6444;49.742;6.114;2023-10-09T00:02:32;15.40;99.90
12761;DHT22;6444;49.742;6.114;2023-10-09T00:04:59;15.00;99.90
12761;DHT22;6444;49.742;6.114;2023-10-09T00:07:25;14.70;99.90
12761;DHT22;6444;49.742;6.114;2023-10-09T00:09:52;13.80;99.90
12761;DHT22;6444;49.742;6.114;2023-10-09T00:12:19;13.10;99.90
12761;DHT22;6444;49.742;6.114;2023-10-09T00:14:45;13.00;99.90
12761;DHT22;6444;49.742;6.114;2023-10-09T00:17:12;13.40;99.90
12761;DHT22;6444;49.742;6.114;2023-10-09T00:19:39;13.30;99.90
12761;DHT22;6444;49.742;6.114;2023-10-09T00:22:05;13.90;99.90
12761;DHT22;6444;49.742;6.114;2023-10-09T00:24:32;14.60;99.90
12761;DHT22;6444;49.742;6.114;2023-10-09T00:26:59;15.20;99.90
12761;DHT22;6444;49.742;6.114;2023-10-09T00:29:28;15.20;99.90
12761;DHT22;6444;49.742;6.114;2023-10-09T00:31:55;15.60;99.90
12761;DHT22;6444;49.742;6.114;2023-10-09T00:34:22;15.80;99.90
12761;DHT22;6444;49.742;6.114;2023-10-09T00:36:48;15.50;99.90
12761;DHT22;6444;49.742;6.114;2023-10-09T00:39:21;14.80;99.90
12761;DHT22;6444;49.742;6.114;2023-10-09T00:41:44;15.00;99.90
12761;DHT22;6444;49.742;6.114;2023-10-09T00:44:11;15.20;99.90
12761;DHT22;6444;49.742;6.114;2023-10-09T00:46:37;15.40;99.90
12761;DHT22;6444;49.742;6.114;2023-10-09T00:49:05;15.80;99.90
12761;DHT22;6444;49.742;6.114;2023-10-09T00:51:31;15.70;99.90
12761;DHT22;6444;49.742;6.114;2023-10-09T00:53:58;15.70;99.90
12761;DHT22;6444;49.742;6.114;2023-10-09T00:56:24;15.80;99.90
12761;DHT22;6444;49.742;6.114;2023-10-09T00:58:51;15.80;99.90
12761;DHT22;6444;49.742;6.114;2023-10-09T01:01:27;15.80;99.90
12761;DHT22;6444;49.742;6.114;2023-10-09T01:03:54;15.50;99.90
12761;DHT22;6444;49.742;6.114;2023-10-09T01:06:20;15.40;99.90
12761;DHT22;6444;49.742;6.114;2023-10-09T01:08:49;15.60;99.90
12761;DHT22;6444;49.742;6.114;2023-10-09T01:11:35;14.20;99.90
12761;DHT22;6444;49.742;6.114;2023-10-09T01:14:02;14.10;99.90
12761;DHT22;6444;49.742;6.114;2023-10-09T01:16:31;14.10;99.90
12761;DHT22;6444;49.742;6.114;2023-10-09T01:18:58;13.40;99.90
12761;DHT22;6444;49.742;6.114;2023-10-09T01:21:25;12.50;99.90
12761;DHT22;6444;49.742;6.114;2023-10-09T01:23:52;12.50;99.90
12761;DHT22;6444;49.742;6.114;2023-10-09T01:26:34;13.30;99.90
12761;DHT22;6444;49.742;6.114;2023-10-09T01:29:06;13.30;99.90
12761;DHT22;6444;49.742;6.114;2023-10-09T01:31:32;13.10;99.90
12761;DHT22;6444;49.742;6.114;2023-10-09T01:33:59;12.70;99.90
12761;DHT22;6444;49.742;6.114;2023-10-09T01:36:26;12.70;99.90
12761;DHT22;6444;49.742;6.114;2023-10-09T01:38:52;12.90;99.90
12761;DHT22;6444;49.742;6.114;2023-10-09T01:41:19;13.10;99.90
12761;DHT22;6444;49.742;6.114;2023-10-09T01:43:45;13.10;99.90
12761;DHT22;6444;49.742;6.114;2023-10-09T01:46:12;13.10;99.90
12761;DHT22;6444;49.742;6.114;2023-10-09T01:48:39;13.40;99.90
12761;DHT22;6444;49.742;6.114;2023-10-09T01:51:05;13.50;99.90
12761;DHT22;6444;49.742;6.114;2023-10-09T01:53:32;13.90;99.90
12761;DHT22;6444;49.742;6.114;2023-10-09T01:56:08;13.90;99.90
12761;DHT22;6444;49.742;6.114;2023-10-09T01:58:25;14.00;99.90
12761;DHT22;6444;49.742;6.114;2023-10-09T02:00:52;14.40;99.90
12761;DHT22;6444;49.742;6.114;2023-10-09T02:03:22;15.20;99.90
12761;DHT22;6444;49.742;6.114;2023-10-09T02:05:51;15.10;99.90
12761;DHT22;6444;49.742;6.114;2023-10-09T02:08:17;15.40;99.90
12761;DHT22;6444;49.742;6.114;2023-10-09T02:10:44;15.70;99.90
12761;DHT22;6444;49.742;6.114;2023-10-09T02:13:11;15.70;99.90
12761;DHT22;6444;49.742;6.114;2023-10-09T02:15:39;15.60;99.90
12761;DHT22;6444;49.742;6.114;2023-10-09T02:18:11;15.50;99.90
12761;DHT22;6444;49.742;6.114;2023-10-09T02:20:37;15.60;99.90
12761;DHT22;6444;49.742;6.114;2023-10-09T02:23:04;15.60;99.90
12761;DHT22;6444;49.742;6.114;2023-10-09T02:25:30;15.60;99.90
12761;DHT22;6444;49.742;6.114;2023-10-09T02:27:58;15.80;99.90
12761;DHT22;6444;49.742;6.114;2023-10-09T02:30:24;15.80;99.90
12761;DHT22;6444;49.742;6.114;2023-10-09T02:32:54;15.80;99.90
12761;DHT22;6444;49.742;6.114;2023-10-09T02:35:21;15.80;99.90
12761;DHT22;6444;49.742;6.114;2023-10-09T02:37:48;15.80;99.90
12761;DHT22;6444;49.742;6.114;2023-10-09T02:40:14;15.60;99.90
12761;DHT22;6444;49.742;6.114;2023-10-09T02:42:42;15.80;99.90
12761;DHT22;6444;49.742;6.114;2023-10-09T02:45:08;15.80;99.90
12761;DHT22;6444;49.742;6.114;2023-10-09T02:47:35;15.80;99.90
12761;DHT22;6444;49.742;6.114;2023-10-09T02:50:01;15.70;99.90
12761;DHT22;6444;49.742;6.114;2023-10-09T02:52:28;15.70;99.90
12761;DHT22;6444;49.742;6.114;2023-10-09T02:54:56;15.80;99.90
12761;DHT22;6444;49.742;6.114;2023-10-09T02:57:21;15.80;99.90
12761;DHT22;6444;49.742;6.114;2023-10-09T02:59:48;15.80;99.90
12761;DHT22;6444;49.742;6.114;2023-10-09T03:02:15;15.70;99.90
12761;DHT22;6444;49.742;6.114;2023-10-09T03:04:41;15.70;99.90
12761;DHT22;6444;49.742;6.114;2023-10-09T03:07:08;15.60;99.90
12761;DHT22;6444;49.742;6.114;2023-10-09T03:09:34;15.60;99.90
12761;DHT22;6444;49.742;6.114;2023-10-09T03:12:02;15.50;99.90
12761;DHT22;6444;49.742;6.114;2023-10-09T03:14:37;15.10;99.90
12761;DHT22;6444;49.742;6.114;2023-10-09T03:17:06;14.80;99.90
12761;DHT22;6444;49.742;6.114;2023-10-09T03:19:36;14.70;99.90
12761;DHT22;6444;49.742;6.114;2023-10-09T03:22:06;15.10;99.90
12761;DHT22;6444;49.742;6.114;2023-10-09T03:24:32;15.40;99.90
12761;DHT22;6444;49.742;6.114;2023-10-09T03:26:59;15.30;99.90
12761;DHT22;6444;49.742;6.114;2023-10-09T03:29:26;15.40;99.90
12761;DHT22;6444;49.742;6.114;2023-10-09T03:31:52;15.50;99.90
12761;DHT22;6444;49.742;6.114;2023-10-09T03:34:19;15.70;99.90
12761;DHT22;6444;49.742;6.114;2023-10-09T03:36:46;15.60;99.90
12761;DHT22;6444;49.742;6.114;2023-10-09T03:39:13;15.60;99.90
12761;DHT22;6444;49.742;6.114;2023-10-09T03:41:57;15.70;99.90
12761;DHT22;6444;49.742;6.114;2023-10-09T03:44:27;15.60;99.90
12761;DHT22;6444;49.742;6.114;2023-10-09T03:46:56;15.10;99.90
12761;DHT22;6444;49.742;6.114;2023-10-09T03:49:22;15.30;99.90
12761;DHT22;6444;49.742;6.114;2023-10-09T03:51:49;15.60;99.90
12761;DHT22;6444;49.742;6.114;2023-10-09T03:54:16;15.60;99.90
12761;DHT22;6444;49.742;6.114;2023-10-09T03:56:43;15.50;99.90
12761;DHT22;6444;49.742;6.114;2023-10-09T03:59:10;15.60;99.90
12761;DHT22;6444;49.742;6.114;2023-10-09T04:01:36;15.60;99.90
12761;DHT22;6444;49.742;6.114;2023-10-09T04:04:06;15.60;99.90
12761;DHT22;6444;49.742;6.114;2023-10-09T04:06:33;15.60;99.90
12761;DHT22;6444;49.742;6.114;2023-10-09T04:09:02;15.50;99.90
12761;DHT22;6444;49.742;6.114;2023-10-09T04:11:29;15.60;99.90
12761;DHT22;6444;49.742;6.114;2023-10-09T04:13:55;15.50;99.90
12761;DHT22;6444;49.742;6.114;2023-10-09T04:16:22;15.00;99.90
12761;DHT22;6444;49.742;6.114;2023-10-09T04:18:58;14.80;99.90
12761;DHT22;6444;49.742;6.114;2023-10-09T04:21:26;15.00;99.90
12761;DHT22;6444;49.742;6.114;2023-10-09T04:23:54;14.90;99.90
12761;DHT22;6444;49.742;6.114;2023-10-09T04:26:26;15.10;99.90
12761;DHT22;6444;49.742;6.114;2023-10-09T04:28:53;15.30;99.90
12761;DHT22;6444;49.742;6.114;2023-10-09T04:31:20;15.40;99.90
12761;DHT22;6444;49.742;6.114;2023-10-09T04:33:47;15.40;99.90
12761;DHT22;6444;49.742;6.114;2023-10-09T04:36:13;15.30;99.90
12761;DHT22;6444;49.742;6.114;2023-10-09T04:38:49;15.20;99.90
12761;DHT22;6444;49.742;6.114;2023-10-09T04:41:30;15.20;99.90
12761;DHT22;6444;49.742;6.114;2023-10-09T04:43:59;15.10;99.90
12761;DHT22;6444;49.742;6.114;2023-10-09T04:46:47;15.00;99.90
12761;DHT22;6444;49.742;6.114;2023-10-09T04:49:32;14.70;99.90
12761;DHT22;6444;49.742;6.114;2023-10-09T04:51:59;14.70;99.90
12761;DHT22;6444;49.742;6.114;2023-10-09T04:54:26;14.70;99.90
12761;DHT22;6444;49.742;6.114;2023-10-09T04:56:52;14.80;99.90
12761;DHT22;6444;49.742;6.114;2023-10-09T04:59:19;14.80;99.90
12761;DHT22;6444;49.742;6.114;2023-10-09T05:01:45;14.90;99.90
12761;DHT22;6444;49.742;6.114;2023-10-09T05:04:12;14.60;99.90
12761;DHT22;6444;49.742;6.114;2023-10-09T05:06:42;14.10;99.90
12761;DHT22;6444;49.742;6.114;2023-10-09T05:09:11;14.10;99.90
12761;DHT22;6444;49.742;6.114;2023-10-09T05:11:38;14.20;99.90
12761;DHT22;6444;49.742;6.114;2023-10-09T05:14:20;14.10;99.90
12761;DHT22;6444;49.742;6.114;2023-10-09T05:16:46;12.50;99.90
12761;DHT22;6444;49.742;6.114;2023-10-09T05:19:22;12.10;99.90
12761;DHT22;6444;49.742;6.114;2023-10-09T05:22:11;12.00;99.90
12761;DHT22;6444;49.742;6.114;2023-10-09T05:24:37;11.90;99.90
12761;DHT22;6444;49.742;6.114;2023-10-09T05:27:10;11.70;99.90
12761;DHT22;6444;49.742;6.114;2023-10-09T05:29:45;11.50;99.90
12761;DHT22;6444;49.742;6.114;2023-10-09T05:32:14;11.50;99.90
12761;DHT22;6444;49.742;6.114;2023-10-09T05:34:42;11.40;99.90
12761;DHT22;6444;49.742;6.114;2023-10-09T05:37:26;11.80;99.90
12761;DHT22;6444;49.742;6.114;2023-10-09T05:39:53;12.10;99.90
12761;DHT22;6444;49.742;6.114;2023-10-09T05:42:31;11.90;99.90
12761;DHT22;6444;49.742;6.114;2023-10-09T05:45:06;12.20;99.90
12761;DHT22;6444;49.742;6.114;2023-10-09T05:47:51;12.50;99.90
12761;DHT22;6444;49.742;6.114;2023-10-09T05:50:17;12.60;99.90
12761;DHT22;6444;49.742;6.114;2023-10-09T05:52:44;12.80;99.90
12761;DHT22;6444;49.742;6.114;2023-10-09T05:55:20;13.10;99.90
12761;DHT22;6444;49.742;6.114;2023-10-09T05:57:47;13.10;99.90
12761;DHT22;6444;49.742;6.114;2023-10-09T06:00:22;13.20;99.90
12761;DHT22;6444;49.742;6.114;2023-10-09T06:03:07;12.90;99.90
12761;DHT22;6444;49.742;6.114;2023-10-09T06:05:49;12.70;99.90
12761;DHT22;6444;49.742;6.114;2023-10-09T06:08:20;12.80;99.90
12761;DHT22;6444;49.742;6.114;2023-10-09T06:10:53;13.40;99.90
12761;DHT22;6444;49.742;6.114;2023-10-09T06:13:38;13.40;99.90
12761;DHT22;6444;49.742;6.114;2023-10-09T06:16:04;13.80;99.90
12761;DHT22;6444;49.742;6.114;2023-10-09T06:18:46;13.80;99.90
12761;DHT22;6444;49.742;6.114;2023-10-09T06:21:13;14.30;99.90
12761;DHT22;6444;49.742;6.114;2023-10-09T06:23:55;14.30;99.90
12761;DHT22;6444;49.742;6.114;2023-10-09T06:26:37;14.70;99.90
12761;DHT22;6444;49.742;6.114;2023-10-09T06:29:03;14.60;99.90
12761;DHT22;6444;49.742;6.114;2023-10-09T06:31:42;14.70;99.90
12761;DHT22;6444;49.742;6.114;2023-10-09T06:34:23;14.80;99.90
12761;DHT22;6444;49.742;6.114;2023-10-09T06:36:50;14.90;99.90
12761;DHT22;6444;49.742;6.114;2023-10-09T06:39:19;15.10;99.90
12761;DHT22;6444;49.742;6.114;2023-10-09T06:42:04;14.90;99.90
12761;DHT22;6444;49.742;6.114;2023-10-09T06:44:37;14.90;99.90
12761;DHT22;6444;49.742;6.114;2023-10-09T06:47:19;14.90;99.90
12761;DHT22;6444;49.742;6.114;2023-10-09T06:49:46;14.90;99.90
12761;DHT22;6444;49.742;6.114;2023-10-09T06:52:12;14.40;99.90
12761;DHT22;6444;49.742;6.114;2023-10-09T06:54:42;14.30;99.90
12761;DHT22;6444;49.742;6.114;2023-10-09T06:57:08;14.10;99.90
12761;DHT22;6444;49.742;6.114;2023-10-09T06:59:41;14.10;99.90
12761;DHT22;6444;49.742;6.114;2023-10-09T07:02:08;14.10;99.90
12761;DHT22;6444;49.742;6.114;2023-10-09T07:04:37;14.70;99.90
12761;DHT22;6444;49.742;6.114;2023-10-09T07:07:04;14.80;99.90
12761;DHT22;6444;49.742;6.114;2023-10-09T07:09:33;14.70;99.90
12761;DHT22;6444;49.742;6.114;2023-10-09T07:12:09;14.20;99.90
12761;DHT22;6444;49.742;6.114;2023-10-09T07:14:36;14.20;99.90
12761;DHT22;6444;49.742;6.114;2023-10-09T07:17:07;14.10;99.90
12761;DHT22;6444;49.742;6.114;2023-10-09T07:19:50;13.90;99.90
12761;DHT22;6444;49.742;6.114;2023-10-09T07:22:17;14.00;99.90
12761;DHT22;6444;49.742;6.114;2023-10-09T07:24:49;14.10;99.90
12761;DHT22;6444;49.742;6.114;2023-10-09T07:27:30;14.20;99.90
12761;DHT22;6444;49.742;6.114;2023-10-09T07:30:12;14.30;99.90
12761;DHT22;6444;49.742;6.114;2023-10-09T07:32:54;14.50;99.90
12761;DHT22;6444;49.742;6.114;2023-10-09T07:35:21;14.40;99.90
12761;DHT22;6444;49.742;6.114;2023-10-09T07:37:53;14.20;99.90
12761;DHT22;6444;49.742;6.114;2023-10-09T07:40:19;14.70;99.90
12761;DHT22;6444;49.742;6.114;2023-10-09T07:42:46;15.20;99.90
12761;DHT22;6444;49.742;6.114;2023-10-09T07:45:12;15.50;99.90
12761;DHT22;6444;49.742;6.114;2023-10-09T07:47:39;15.60;99.90
12761;DHT22;6444;49.742;6.114;2023-10-09T07:50:24;16.50;99.90
12761;DHT22;6444;49.742;6.114;2023-10-09T07:52:51;16.40;99.90
12761;DHT22;6444;49.742;6.114;2023-10-09T07:55:18;16.40;99.90
12761;DHT22;6444;49.742;6.114;2023-10-09T07:57:53;16.90;99.90
12761;DHT22;6444;49.742;6.114;2023-10-09T08:00:20;17.30;99.90
12761;DHT22;6444;49.742;6.114;2023-10-09T08:03:04;17.10;99.90
12761;DHT22;6444;49.742;6.114;2023-10-09T08:05:31;17.80;99.90
12761;DHT22;6444;49.742;6.114;2023-10-09T08:08:01;18.60;99.90
12761;DHT22;6444;49.742;6.114;2023-10-09T08:10:30;18.70;99.90
12761;DHT22;6444;49.742;6.114;2023-10-09T08:12:56;18.90;99.90
12761;DHT22;6444;49.742;6.114;2023-10-09T08:15:26;19.40;99.90
12761;DHT22;6444;49.742;6.114;2023-10-09T08:18:01;19.00;99.90
12761;DHT22;6444;49.742;6.114;2023-10-09T08:20:37;19.30;99.90
12761;DHT22;6444;49.742;6.114;2023-10-09T08:23:22;20.10;99.90
12761;DHT22;6444;49.742;6.114;2023-10-09T08:25:48;20.10;99.90
12761;DHT22;6444;49.742;6.114;2023-10-09T08:28:24;19.50;99.90
12761;DHT22;6444;49.742;6.114;2023-10-09T08:30:50;18.90;99.90
12761;DHT22;6444;49.742;6.114;2023-10-09T08:33:17;19.00;99.90
12761;DHT22;6444;49.742;6.114;2023-10-09T08:35:55;18.90;99.90
12761;DHT22;6444;49.742;6.114;2023-10-09T08:38:22;18.40;99.90
12761;DHT22;6444;49.742;6.114;2023-10-09T08:40:51;18.50;99.90
12761;DHT22;6444;49.742;6.114;2023-10-09T08:43:18;18.40;99.90
12761;DHT22;6444;49.742;6.114;2023-10-09T08:45:54;18.20;99.90
12761;DHT22;6444;49.742;6.114;2023-10-09T08:48:20;18.10;99.90
12761;DHT22;6444;49.742;6.114;2023-10-09T08:50:49;18.10;99.90
12761;DHT22;6444;49.742;6.114;2023-10-09T08:53:16;17.90;99.90
12761;DHT22;6444;49.742;6.114;2023-10-09T08:55:42;17.70;99.90
12761;DHT22;6444;49.742;6.114;2023-10-09T08:58:09;18.20;99.90
12761;DHT22;6444;49.742;6.114;2023-10-09T09:00:48;19.30;99.90
12761;DHT22;6444;49.742;6.114;2023-10-09T09:03:15;19.30;99.90
12761;DHT22;6444;49.742;6.114;2023-10-09T09:05:45;19.30;99.90
12761;DHT22;6444;49.742;6.114;2023-10-09T09:08:20;19.70;99.90
12761;DHT22;6444;49.742;6.114;2023-10-09T09:10:35;20.70;99.90
12761;DHT22;6444;49.742;6.114;2023-10-09T09:13:02;20.60;99.90
12761;DHT22;6444;49.742;6.114;2023-10-09T09:15:29;20.70;99.90
12761;DHT22;6444;49.742;6.114;2023-10-09T09:18:05;20.40;99.90
12761;DHT22;6444;49.742;6.114;2023-10-09T09:20:33;20.40;99.90
12761;DHT22;6444;49.742;6.114;2023-10-09T09:23:00;20.70;99.90
12761;DHT22;6444;49.742;6.114;2023-10-09T09:25:40;21.10;99.90
12761;DHT22;6444;49.742;6.114;2023-10-09T09:27:53;20.70;99.90
12761;DHT22;6444;49.742;6.114;2023-10-09T09:30:23;20.80;99.90
12761;DHT22;6444;49.742;6.114;2023-10-09T09:32:49;20.50;99.90
12761;DHT22;6444;49.742;6.114;2023-10-09T09:35:16;20.00;99.90
12761;DHT22;6444;49.742;6.114;2023-10-09T09:37:52;20.10;99.90
12761;DHT22;6444;49.742;6.114;2023-10-09T09:40:18;20.50;99.90
12761;DHT22;6444;49.742;6.114;2023-10-09T09:42:58;20.40;99.90
12761;DHT22;6444;49.742;6.114;2023-10-09T09:45:21;21.40;99.90
12761;DHT22;6444;49.742;6.114;2023-10-09T09:47:48;22.80;99.90
12761;DHT22;6444;49.742;6.114;2023-10-09T09:50:14;22.50;99.90
12761;DHT22;6444;49.742;6.114;2023-10-09T09:52:41;22.40;99.90
12761;DHT22;6444;49.742;6.114;2023-10-09T09:55:10;22.50;99.90
12761;DHT22;6444;49.742;6.114;2023-10-09T09:57:44;22.70;99.90
12761;DHT22;6444;49.742;6.114;2023-10-09T10:00:11;22.70;99.90
12761;DHT22;6444;49.742;6.114;2023-10-09T10:02:37;22.90;99.90
12761;DHT22;6444;49.742;6.114;2023-10-09T10:05:05;23.60;99.90
12761;DHT22;6444;49.742;6.114;2023-10-09T10:07:31;23.70;99.90
12761;DHT22;6444;49.742;6.114;2023-10-09T10:09:57;23.40;99.90
12761;DHT22;6444;49.742;6.114;2023-10-09T10:12:49;23.10;99.90
12761;DHT22;6444;49.742;6.114;2023-10-09T10:18:24;23.40;99.90
12761;DHT22;6444;49.742;6.114;2023-10-09T10:21:10;23.30;99.90
12761;DHT22;6444;49.742;6.114;2023-10-09T10:23:43;23.00;99.90
12761;DHT22;6444;49.742;6.114;2023-10-09T10:26:18;23.20;99.90
12761;DHT22;6444;49.742;6.114;2023-10-09T10:29:13;23.00;99.90
12761;DHT22;6444;49.742;6.114;2023-10-09T10:31:14;22.80;99.90
12761;DHT22;6444;49.742;6.114;2023-10-09T10:36:22;22.30;99.90
12761;DHT22;6444;49.742;6.114;2023-10-09T10:39:03;21.40;99.90
12761;DHT22;6444;49.742;6.114;2023-10-09T10:41:33;21.10;99.90
12761;DHT22;6444;49.742;6.114;2023-10-09T10:44:03;23.40;99.90
12761;DHT22;6444;49.742;6.114;2023-10-09T10:46:42;23.40;99.90
12761;DHT22;6444;49.742;6.114;2023-10-09T10:49:09;24.00;99.90
12761;DHT22;6444;49.742;6.114;2023-10-09T10:51:39;24.00;99.90
12761;DHT22;6444;49.742;6.114;2023-10-09T10:54:06;23.40;99.90
12761;DHT22;6444;49.742;6.114;2023-10-09T10:56:44;23.40;99.90
12761;DHT22;6444;49.742;6.114;2023-10-09T10:59:10;23.10;99.90
12761;DHT22;6444;49.742;6.114;2023-10-09T11:01:37;22.70;99.90
12761;DHT22;6444;49.742;6.114;2023-10-09T11:04:23;22.90;99.90
12761;DHT22;6444;49.742;6.114;2023-10-09T11:06:46;23.30;99.90
12761;DHT22;6444;49.742;6.114;2023-10-09T11:09:12;23.60;99.90
12761;DHT22;6444;49.742;6.114;2023-10-09T11:11:48;24.30;99.90
12761;DHT22;6444;49.742;6.114;2023-10-09T11:14:14;23.70;99.90
12761;DHT22;6444;49.742;6.114;2023-10-09T11:16:42;23.40;99.90
12761;DHT22;6444;49.742;6.114;2023-10-09T11:19:12;23.30;99.90
12761;DHT22;6444;49.742;6.114;2023-10-09T11:21:54;23.70;99.90
12761;DHT22;6444;49.742;6.114;2023-10-09T11:24:32;23.30;99.90
12761;DHT22;6444;49.742;6.114;2023-10-09T11:27:02;23.10;99.90
12761;DHT22;6444;49.742;6.114;2023-10-09T11:29:28;22.90;99.90
12761;DHT22;6444;49.742;6.114;2023-10-09T11:32:03;23.10;99.90
12761;DHT22;6444;49.742;6.114;2023-10-09T11:34:30;22.90;99.90
12761;DHT22;6444;49.742;6.114;2023-10-09T11:37:03;23.00;99.90
12761;DHT22;6444;49.742;6.114;2023-10-09T11:39:27;22.90;99.90
12761;DHT22;6444;49.742;6.114;2023-10-09T11:42:02;22.90;99.90
12761;DHT22;6444;49.742;6.114;2023-10-09T11:44:41;23.00;99.90
12761;DHT22;6444;49.742;6.114;2023-10-09T11:47:07;23.70;99.90
12761;DHT22;6444;49.742;6.114;2023-10-09T11:49:57;24.30;99.90
12761;DHT22;6444;49.742;6.114;2023-10-09T11:52:23;24.70;99.90
12761;DHT22;6444;49.742;6.114;2023-10-09T11:57:24;25.00;99.90
12761;DHT22;6444;49.742;6.114;2023-10-09T11:59:51;25.20;99.90
12761;DHT22;6444;49.742;6.114;2023-10-09T12:02:21;25.10;99.90
12761;DHT22;6444;49.742;6.114;2023-10-09T12:04:47;24.70;99.90
12761;DHT22;6444;49.742;6.114;2023-10-09T12:07:15;24.50;99.90
12761;DHT22;6444;49.742;6.114;2023-10-09T12:09:41;24.40;99.90
12761;DHT22;6444;49.742;6.114;2023-10-09T12:12:08;24.70;99.90
12761;DHT22;6444;49.742;6.114;2023-10-09T12:14:35;24.50;99.90
12761;DHT22;6444;49.742;6.114;2023-10-09T12:17:02;24.30;99.90
12761;DHT22;6444;49.742;6.114;2023-10-09T12:19:29;24.70;99.90
12761;DHT22;6444;49.742;6.114;2023-10-09T12:21:55;24.60;99.90
12761;DHT22;6444;49.742;6.114;2023-10-09T12:24:22;24.80;99.90
12761;DHT22;6444;49.742;6.114;2023-10-09T12:26:49;24.90;99.90
12761;DHT22;6444;49.742;6.114;2023-10-09T12:29:15;25.00;99.90
12761;DHT22;6444;49.742;6.114;2023-10-09T12:31:42;24.90;99.90
12761;DHT22;6444;49.742;6.114;2023-10-09T12:34:09;24.80;99.90
12761;DHT22;6444;49.742;6.114;2023-10-09T12:38:29;24.80;99.90
12761;DHT22;6444;49.742;6.114;2023-10-09T12:41:04;24.60;99.90
12761;DHT22;6444;49.742;6.114;2023-10-09T12:43:31;24.20;99.90
12761;DHT22;6444;49.742;6.114;2023-10-09T12:45:57;24.10;99.90
12761;DHT22;6444;49.742;6.114;2023-10-09T12:48:24;23.80;99.90
12761;DHT22;6444;49.742;6.114;2023-10-09T12:50:51;24.00;99.90
12761;DHT22;6444;49.742;6.114;2023-10-09T12:53:17;24.60;99.90
12761;DHT22;6444;49.742;6.114;2023-10-09T12:55:44;24.80;99.90
12761;DHT22;6444;49.742;6.114;2023-10-09T12:58:11;24.90;99.90
12761;DHT22;6444;49.742;6.114;2023-10-09T13:00:37;25.00;99.90
12761;DHT22;6444;49.742;6.114;2023-10-09T13:03:12;24.50;99.90
12761;DHT22;6444;49.742;6.114;2023-10-09T13:05:49;24.50;99.90
12761;DHT22;6444;49.742;6.114;2023-10-09T13:08:27;24.40;99.90
12761;DHT22;6444;49.742;6.114;2023-10-09T13:11:03;24.40;99.90
12761;DHT22;6444;49.742;6.114;2023-10-09T13:13:29;24.20;99.90
12761;DHT22;6444;49.742;6.114;2023-10-09T13:16:20;24.30;99.90
12761;DHT22;6444;49.742;6.114;2023-10-09T13:18:50;24.00;99.90
12761;DHT22;6444;49.742;6.114;2023-10-09T13:21:17;23.90;99.90
12761;DHT22;6444;49.742;6.114;2023-10-09T13:23:43;23.90;99.90
12761;DHT22;6444;49.742;6.114;2023-10-09T13:26:10;24.70;99.90
12761;DHT22;6444;49.742;6.114;2023-10-09T13:28:46;24.60;99.90
12761;DHT22;6444;49.742;6.114;2023-10-09T13:31:15;24.50;99.90
12761;DHT22;6444;49.742;6.114;2023-10-09T13:33:42;24.20;99.90
12761;DHT22;6444;49.742;6.114;2023-10-09T13:36:12;24.80;99.90
12761;DHT22;6444;49.742;6.114;2023-10-09T13:38:54;25.20;99.90
12761;DHT22;6444;49.742;6.114;2023-10-09T13:41:21;25.20;99.90
12761;DHT22;6444;49.742;6.114;2023-10-09T13:43:47;25.90;99.90
12761;DHT22;6444;49.742;6.114;2023-10-09T13:46:14;25.80;99.90
12761;DHT22;6444;49.742;6.114;2023-10-09T13:48:41;25.20;99.90
12761;DHT22;6444;49.742;6.114;2023-10-09T13:51:08;25.10;99.90
12761;DHT22;6444;49.742;6.114;2023-10-09T13:53:35;25.60;99.90
12761;DHT22;6444;49.742;6.114;2023-10-09T13:56:04;25.50;99.90
12761;DHT22;6444;49.742;6.114;2023-10-09T13:58:31;25.40;99.90
12761;DHT22;6444;49.742;6.114;2023-10-09T14:00:57;25.40;99.90
12761;DHT22;6444;49.742;6.114;2023-10-09T14:03:24;24.90;99.90
12761;DHT22;6444;49.742;6.114;2023-10-09T14:05:51;24.60;99.90
12761;DHT22;6444;49.742;6.114;2023-10-09T14:08:24;24.30;99.90
12761;DHT22;6444;49.742;6.114;2023-10-09T14:10:50;24.30;99.90
12761;DHT22;6444;49.742;6.114;2023-10-09T14:13:17;24.10;99.90
12761;DHT22;6444;49.742;6.114;2023-10-09T14:15:44;23.90;99.90
12761;DHT22;6444;49.742;6.114;2023-10-09T14:18:11;23.70;99.90
12761;DHT22;6444;49.742;6.114;2023-10-09T14:20:38;23.60;99.90
12761;DHT22;6444;49.742;6.114;2023-10-09T14:23:04;23.50;99.90
12761;DHT22;6444;49.742;6.114;2023-10-09T14:25:34;23.40;99.90
12761;DHT22;6444;49.742;6.114;2023-10-09T14:28:00;23.40;99.90
12761;DHT22;6444;49.742;6.114;2023-10-09T14:30:28;23.70;99.90
12761;DHT22;6444;49.742;6.114;2023-10-09T14:32:57;23.70;99.90
12761;DHT22;6444;49.742;6.114;2023-10-09T14:35:23;23.70;99.90
12761;DHT22;6444;49.742;6.114;2023-10-09T14:37:50;23.50;99.90
12761;DHT22;6444;49.742;6.114;2023-10-09T14:40:17;23.90;99.90
12761;DHT22;6444;49.742;6.114;2023-10-09T14:42:43;23.80;99.90
12761;DHT22;6444;49.742;6.114;2023-10-09T14:45:11;23.40;99.90
12761;DHT22;6444;49.742;6.114;2023-10-09T14:47:37;23.40;99.90
12761;DHT22;6444;49.742;6.114;2023-10-09T14:50:04;23.50;99.90
12761;DHT22;6444;49.742;6.114;2023-10-09T14:52:31;23.90;99.90
12761;DHT22;6444;49.742;6.114;2023-10-09T14:54:58;23.90;99.90
12761;DHT22;6444;49.742;6.114;2023-10-09T14:57:25;24.30;99.90
12761;DHT22;6444;49.742;6.114;2023-10-09T14:59:52;24.30;99.90
12761;DHT22;6444;49.742;6.114;2023-10-09T15:02:18;24.10;99.90
12761;DHT22;6444;49.742;6.114;2023-10-09T15:04:47;24.10;99.90
12761;DHT22;6444;49.742;6.114;2023-10-09T15:07:14;24.00;99.90
12761;DHT22;6444;49.742;6.114;2023-10-09T15:09:40;23.90;99.90
12761;DHT22;6444;49.742;6.114;2023-10-09T15:12:07;24.10;99.90
12761;DHT22;6444;49.742;6.114;2023-10-09T15:14:34;23.90;99.90
12761;DHT22;6444;49.742;6.114;2023-10-09T15:17:00;23.90;99.90
12761;DHT22;6444;49.742;6.114;2023-10-09T15:19:27;23.80;99.90
12761;DHT22;6444;49.742;6.114;2023-10-09T15:21:56;24.00;99.90
12761;DHT22;6444;49.742;6.114;2023-10-09T15:24:23;24.50;99.90
12761;DHT22;6444;49.742;6.114;2023-10-09T15:26:49;24.50;99.90
12761;DHT22;6444;49.742;6.114;2023-10-09T15:29:19;24.60;99.90
12761;DHT22;6444;49.742;6.114;2023-10-09T15:31:49;25.10;99.90
12761;DHT22;6444;49.742;6.114;2023-10-09T15:34:15;25.10;99.90
12761;DHT22;6444;49.742;6.114;2023-10-09T15:36:41;25.20;99.90
12761;DHT22;6444;49.742;6.114;2023-10-09T15:39:08;25.50;99.90
12761;DHT22;6444;49.742;6.114;2023-10-09T15:41:35;25.70;99.90
12761;DHT22;6444;49.742;6.114;2023-10-09T15:44:02;25.60;99.90
12761;DHT22;6444;49.742;6.114;2023-10-09T15:46:29;25.00;99.90
12761;DHT22;6444;49.742;6.114;2023-10-09T15:48:55;24.30;99.90
12761;DHT22;6444;49.742;6.114;2023-10-09T15:51:22;24.50;99.90
12761;DHT22;6444;49.742;6.114;2023-10-09T15:53:48;24.70;99.90
12761;DHT22;6444;49.742;6.114;2023-10-09T15:56:16;24.60;99.90
12761;DHT22;6444;49.742;6.114;2023-10-09T15:58:43;24.50;99.90
12761;DHT22;6444;49.742;6.114;2023-10-09T16:01:12;24.50;99.90
12761;DHT22;6444;49.742;6.114;2023-10-09T16:03:39;24.30;99.90
12761;DHT22;6444;49.742;6.114;2023-10-09T16:06:06;24.50;99.90
12761;DHT22;6444;49.742;6.114;2023-10-09T16:08:35;24.50;99.90